sensor_id;sensor_type;location;lat;lon;timestamp;P1;durP1;ratioP1;P2;durP2;ratioP2
31724;SDS011;18306;40.960;14.836;2023-05-08T00:00:33;5.88;;;4.07;;
31724;SDS011;18306;40.960;14.836;2023-05-08T00:03:00;6.43;;;4.50;;
31724;SDS011;18306;40.960;14.836;2023-05-08T00:05:28;8.07;;;4.75;;
31724;SDS011;18306;40.960;14.836;2023-05-08T00:07:55;19.25;;;6.72;;
31724;SDS011;18306;40.960;14.836;2023-05-08T00:10:27;12.25;;;5.70;;
31724;SDS011;18306;40.960;14.836;2023-05-08T00:12:54;7.30;;;4.85;;
31724;SDS011;18306;40.960;14.836;2023-05-08T00:15:22;7.47;;;4.35;;
31724;SDS011;18306;40.960;14.836;2023-05-08T00:17:49;6.88;;;4.30;;
31724;SDS011;18306;40.960;14.836;2023-05-08T00:20:16;8.25;;;4.95;;
31724;SDS011;18306;40.960;14.836;2023-05-08T00:22:43;10.45;;;5.82;;
31724;SDS011;18306;40.960;14.836;2023-05-08T00:25:10;16.80;;;7.05;;
31724;SDS011;18306;40.960;14.836;2023-05-08T00:27:37;13.63;;;6.40;;
31724;SDS011;18306;40.960;14.836;2023-05-08T00:30:05;7.32;;;4.82;;
31724;SDS011;18306;40.960;14.836;2023-05-08T00:32:32;7.20;;;4.60;;
31724;SDS011;18306;40.960;14.836;2023-05-08T00:35:00;9.00;;;5.63;;
31724;SDS011;18306;40.960;14.836;2023-05-08T00:37:28;8.80;;;5.18;;
31724;SDS011;18306;40.960;14.836;2023-05-08T00:39:54;16.48;;;5.53;;
31724;SDS011;18306;40.960;14.836;2023-05-08T00:42:21;13.60;;;5.65;;
31724;SDS011;18306;40.960;14.836;2023-05-08T00:44:48;9.82;;;5.40;;
31724;SDS011;18306;40.960;14.836;2023-05-08T00:47:16;10.15;;;4.75;;
31724;SDS011;18306;40.960;14.836;2023-05-08T00:49:43;14.88;;;5.72;;
31724;SDS011;18306;40.960;14.836;2023-05-08T00:52:11;11.75;;;4.55;;
31724;SDS011;18306;40.960;14.836;2023-05-08T00:54:38;5.97;;;4.22;;
31724;SDS011;18306;40.960;14.836;2023-05-08T00:57:06;10.20;;;5.53;;
31724;SDS011;18306;40.960;14.836;2023-05-08T00:59:35;12.50;;;5.10;;
31724;SDS011;18306;40.960;14.836;2023-05-08T01:02:21;11.48;;;4.45;;
31724;SDS011;18306;40.960;14.836;2023-05-08T01:04:55;7.93;;;4.85;;
31724;SDS011;18306;40.960;14.836;2023-05-08T01:07:25;5.82;;;4.03;;
31724;SDS011;18306;40.960;14.836;2023-05-08T01:09:53;9.38;;;5.03;;
31724;SDS011;18306;40.960;14.836;2023-05-08T01:20:48;11.75;;;5.53;;
31724;SDS011;18306;40.960;14.836;2023-05-08T01:29:58;12.07;;;5.63;;
31724;SDS011;18306;40.960;14.836;2023-05-08T01:32:45;9.82;;;5.57;;
31724;SDS011;18306;40.960;14.836;2023-05-08T01:35:28;9.40;;;5.95;;
31724;SDS011;18306;40.960;14.836;2023-05-08T01:38:07;8.43;;;5.65;;
31724;SDS011;18306;40.960;14.836;2023-05-08T01:43:31;10.70;;;5.35;;
31724;SDS011;18306;40.960;14.836;2023-05-08T01:46:15;10.55;;;5.38;;
31724;SDS011;18306;40.960;14.836;2023-05-08T01:51:47;9.93;;;5.53;;
31724;SDS011;18306;40.960;14.836;2023-05-08T01:54:24;9.77;;;5.22;;
31724;SDS011;18306;40.960;14.836;2023-05-08T01:56:54;8.25;;;5.30;;
31724;SDS011;18306;40.960;14.836;2023-05-08T01:59:26;7.97;;;4.65;;
31724;SDS011;18306;40.960;14.836;2023-05-08T02:01:54;10.02;;;5.20;;
31724;SDS011;18306;40.960;14.836;2023-05-08T02:04:24;11.63;;;5.85;;
31724;SDS011;18306;40.960;14.836;2023-05-08T02:06:53;9.00;;;5.38;;
31724;SDS011;18306;40.960;14.836;2023-05-08T02:09:22;11.02;;;5.65;;
31724;SDS011;18306;40.960;14.836;2023-05-08T02:11:51;11.20;;;6.13;;
31724;SDS011;18306;40.960;14.836;2023-05-08T02:14:19;16.25;;;6.28;;
31724;SDS011;18306;40.960;14.836;2023-05-08T02:16:47;11.90;;;6.05;;
31724;SDS011;18306;40.960;14.836;2023-05-08T02:19:17;9.48;;;6.07;;
31724;SDS011;18306;40.960;14.836;2023-05-08T02:21:44;12.90;;;5.68;;
31724;SDS011;18306;40.960;14.836;2023-05-08T02:24:13;9.40;;;5.10;;
31724;SDS011;18306;40.960;14.836;2023-05-08T02:26:41;14.18;;;5.72;;
31724;SDS011;18306;40.960;14.836;2023-05-08T02:29:11;10.27;;;5.82;;
31724;SDS011;18306;40.960;14.836;2023-05-08T02:31:39;10.90;;;4.75;;
31724;SDS011;18306;40.960;14.836;2023-05-08T02:34:07;7.55;;;4.90;;
31724;SDS011;18306;40.960;14.836;2023-05-08T02:36:36;7.55;;;4.90;;
31724;SDS011;18306;40.960;14.836;2023-05-08T02:39:04;8.98;;;4.75;;
31724;SDS011;18306;40.960;14.836;2023-05-08T02:41:33;8.30;;;5.22;;
31724;SDS011;18306;40.960;14.836;2023-05-08T02:44:01;11.60;;;5.85;;
31724;SDS011;18306;40.960;14.836;2023-05-08T02:46:43;14.63;;;5.90;;
31724;SDS011;18306;40.960;14.836;2023-05-08T02:49:19;9.52;;;5.10;;
31724;SDS011;18306;40.960;14.836;2023-05-08T02:52:12;5.75;;;4.80;;
31724;SDS011;18306;40.960;14.836;2023-05-08T02:55:04;6.28;;;4.70;;
31724;SDS011;18306;40.960;14.836;2023-05-08T02:57:52;7.80;;;4.85;;
31724;SDS011;18306;40.960;14.836;2023-05-08T03:00:51;10.63;;;6.43;;
31724;SDS011;18306;40.960;14.836;2023-05-08T03:03:27;10.18;;;5.35;;
31724;SDS011;18306;40.960;14.836;2023-05-08T03:06:16;11.07;;;5.43;;
31724;SDS011;18306;40.960;14.836;2023-05-08T03:08:47;10.23;;;4.82;;
31724;SDS011;18306;40.960;14.836;2023-05-08T03:11:21;8.15;;;5.22;;
31724;SDS011;18306;40.960;14.836;2023-05-08T03:13:55;9.55;;;6.13;;
31724;SDS011;18306;40.960;14.836;2023-05-08T03:16:26;11.05;;;5.10;;
31724;SDS011;18306;40.960;14.836;2023-05-08T03:18:56;11.30;;;6.18;;
31724;SDS011;18306;40.960;14.836;2023-05-08T03:21:27;10.95;;;5.53;;
31724;SDS011;18306;40.960;14.836;2023-05-08T03:23:56;6.28;;;4.22;;
31724;SDS011;18306;40.960;14.836;2023-05-08T03:26:24;9.45;;;5.63;;
31724;SDS011;18306;40.960;14.836;2023-05-08T03:28:52;7.75;;;5.13;;
31724;SDS011;18306;40.960;14.836;2023-05-08T03:31:26;9.65;;;5.72;;
31724;SDS011;18306;40.960;14.836;2023-05-08T03:33:57;9.13;;;4.95;;
31724;SDS011;18306;40.960;14.836;2023-05-08T03:36:26;11.05;;;5.57;;
31724;SDS011;18306;40.960;14.836;2023-05-08T03:38:54;6.32;;;4.53;;
31724;SDS011;18306;40.960;14.836;2023-05-08T03:41:23;16.73;;;5.47;;
31724;SDS011;18306;40.960;14.836;2023-05-08T03:43:51;10.50;;;5.72;;
31724;SDS011;18306;40.960;14.836;2023-05-08T03:46:20;15.70;;;6.03;;
31724;SDS011;18306;40.960;14.836;2023-05-08T03:48:48;7.60;;;5.43;;
31724;SDS011;18306;40.960;14.836;2023-05-08T03:51:18;7.40;;;5.60;;
31724;SDS011;18306;40.960;14.836;2023-05-08T03:53:46;5.32;;;4.25;;
31724;SDS011;18306;40.960;14.836;2023-05-08T03:56:13;5.78;;;3.97;;
31724;SDS011;18306;40.960;14.836;2023-05-08T03:58:49;9.98;;;4.78;;
31724;SDS011;18306;40.960;14.836;2023-05-08T04:04:16;8.77;;;6.05;;
31724;SDS011;18306;40.960;14.836;2023-05-08T04:06:58;12.45;;;6.20;;
31724;SDS011;18306;40.960;14.836;2023-05-08T04:15:12;8.77;;;5.55;;
31724;SDS011;18306;40.960;14.836;2023-05-08T04:17:49;9.15;;;5.00;;
31724;SDS011;18306;40.960;14.836;2023-05-08T04:20:39;8.32;;;4.53;;
31724;SDS011;18306;40.960;14.836;2023-05-08T04:23:07;5.18;;;4.13;;
31724;SDS011;18306;40.960;14.836;2023-05-08T04:25:39;7.97;;;5.35;;
31724;SDS011;18306;40.960;14.836;2023-05-08T04:28:08;7.18;;;4.22;;
31724;SDS011;18306;40.960;14.836;2023-05-08T04:30:38;7.22;;;4.57;;
31724;SDS011;18306;40.960;14.836;2023-05-08T04:33:06;9.10;;;4.90;;
31724;SDS011;18306;40.960;14.836;2023-05-08T04:35:35;7.15;;;4.55;;
31724;SDS011;18306;40.960;14.836;2023-05-08T04:38:02;5.60;;;4.22;;
31724;SDS011;18306;40.960;14.836;2023-05-08T04:40:29;7.60;;;5.10;;
31724;SDS011;18306;40.960;14.836;2023-05-08T04:42:57;12.35;;;4.90;;
31724;SDS011;18306;40.960;14.836;2023-05-08T04:45:24;8.40;;;5.32;;
31724;SDS011;18306;40.960;14.836;2023-05-08T04:47:51;11.55;;;4.95;;
31724;SDS011;18306;40.960;14.836;2023-05-08T04:50:18;14.18;;;5.75;;
31724;SDS011;18306;40.960;14.836;2023-05-08T04:52:45;10.68;;;5.40;;
31724;SDS011;18306;40.960;14.836;2023-05-08T04:55:12;8.40;;;4.93;;
31724;SDS011;18306;40.960;14.836;2023-05-08T04:57:40;11.70;;;4.47;;
31724;SDS011;18306;40.960;14.836;2023-05-08T05:00:07;11.70;;;4.50;;
31724;SDS011;18306;40.960;14.836;2023-05-08T05:02:38;11.50;;;5.55;;
31724;SDS011;18306;40.960;14.836;2023-05-08T05:05:05;5.35;;;4.20;;
31724;SDS011;18306;40.960;14.836;2023-05-08T05:07:33;10.82;;;5.72;;
31724;SDS011;18306;40.960;14.836;2023-05-08T05:10:00;8.63;;;5.00;;
31724;SDS011;18306;40.960;14.836;2023-05-08T05:12:30;7.90;;;4.82;;
31724;SDS011;18306;40.960;14.836;2023-05-08T05:14:57;7.22;;;4.35;;
31724;SDS011;18306;40.960;14.836;2023-05-08T05:17:31;11.25;;;4.20;;
31724;SDS011;18306;40.960;14.836;2023-05-08T05:19:59;8.18;;;5.10;;
31724;SDS011;18306;40.960;14.836;2023-05-08T05:22:26;9.65;;;4.70;;
31724;SDS011;18306;40.960;14.836;2023-05-08T05:24:54;8.63;;;4.82;;
31724;SDS011;18306;40.960;14.836;2023-05-08T05:27:21;6.50;;;4.80;;
31724;SDS011;18306;40.960;14.836;2023-05-08T05:29:48;8.32;;;5.57;;
31724;SDS011;18306;40.960;14.836;2023-05-08T05:32:16;8.70;;;5.25;;
31724;SDS011;18306;40.960;14.836;2023-05-08T05:34:43;9.88;;;5.05;;
31724;SDS011;18306;40.960;14.836;2023-05-08T05:37:10;7.65;;;4.80;;
31724;SDS011;18306;40.960;14.836;2023-05-08T05:39:38;20.30;;;5.18;;
31724;SDS011;18306;40.960;14.836;2023-05-08T05:42:05;13.35;;;4.82;;
31724;SDS011;18306;40.960;14.836;2023-05-08T05:44:32;7.97;;;4.53;;
31724;SDS011;18306;40.960;14.836;2023-05-08T05:46:59;5.88;;;4.80;;
31724;SDS011;18306;40.960;14.836;2023-05-08T05:49:26;8.20;;;4.95;;
31724;SDS011;18306;40.960;14.836;2023-05-08T05:51:53;10.23;;;4.32;;
31724;SDS011;18306;40.960;14.836;2023-05-08T05:54:21;9.27;;;4.90;;
31724;SDS011;18306;40.960;14.836;2023-05-08T05:56:48;7.00;;;4.45;;
31724;SDS011;18306;40.960;14.836;2023-05-08T05:59:15;12.07;;;5.30;;
31724;SDS011;18306;40.960;14.836;2023-05-08T06:01:43;8.07;;;5.05;;
31724;SDS011;18306;40.960;14.836;2023-05-08T06:04:10;9.25;;;5.45;;
31724;SDS011;18306;40.960;14.836;2023-05-08T06:06:38;13.85;;;6.85;;
31724;SDS011;18306;40.960;14.836;2023-05-08T06:09:05;12.85;;;6.35;;
31724;SDS011;18306;40.960;14.836;2023-05-08T06:11:32;19.10;;;7.72;;
31724;SDS011;18306;40.960;14.836;2023-05-08T06:13:59;9.63;;;5.72;;
31724;SDS011;18306;40.960;14.836;2023-05-08T06:16:26;9.20;;;5.32;;
31724;SDS011;18306;40.960;14.836;2023-05-08T06:18:55;12.70;;;6.65;;
31724;SDS011;18306;40.960;14.836;2023-05-08T06:21:24;10.93;;;5.85;;
31724;SDS011;18306;40.960;14.836;2023-05-08T06:23:51;9.48;;;5.60;;
31724;SDS011;18306;40.960;14.836;2023-05-08T06:26:18;11.80;;;5.32;;
31724;SDS011;18306;40.960;14.836;2023-05-08T06:28:46;9.45;;;5.10;;
31724;SDS011;18306;40.960;14.836;2023-05-08T06:31:13;8.63;;;4.80;;
31724;SDS011;18306;40.960;14.836;2023-05-08T06:33:40;8.43;;;5.05;;
31724;SDS011;18306;40.960;14.836;2023-05-08T06:36:07;8.50;;;5.30;;
31724;SDS011;18306;40.960;14.836;2023-05-08T06:38:34;15.50;;;8.65;;
31724;SDS011;18306;40.960;14.836;2023-05-08T06:41:01;14.45;;;9.13;;
31724;SDS011;18306;40.960;14.836;2023-05-08T06:43:28;12.40;;;8.38;;
31724;SDS011;18306;40.960;14.836;2023-05-08T06:45:55;14.88;;;7.00;;
31724;SDS011;18306;40.960;14.836;2023-05-08T06:48:22;9.65;;;6.05;;
31724;SDS011;18306;40.960;14.836;2023-05-08T06:50:54;16.88;;;6.72;;
31724;SDS011;18306;40.960;14.836;2023-05-08T06:53:22;9.00;;;6.60;;
31724;SDS011;18306;40.960;14.836;2023-05-08T06:55:49;9.02;;;6.03;;
31724;SDS011;18306;40.960;14.836;2023-05-08T06:58:16;7.15;;;5.78;;
31724;SDS011;18306;40.960;14.836;2023-05-08T07:00:43;7.25;;;5.25;;
31724;SDS011;18306;40.960;14.836;2023-05-08T07:03:11;12.98;;;6.95;;
31724;SDS011;18306;40.960;14.836;2023-05-08T07:05:38;11.32;;;6.00;;
31724;SDS011;18306;40.960;14.836;2023-05-08T07:08:05;10.50;;;5.88;;
31724;SDS011;18306;40.960;14.836;2023-05-08T07:10:32;8.10;;;5.63;;
31724;SDS011;18306;40.960;14.836;2023-05-08T07:12:59;10.90;;;5.72;;
31724;SDS011;18306;40.960;14.836;2023-05-08T07:15:26;8.15;;;5.47;;
31724;SDS011;18306;40.960;14.836;2023-05-08T07:17:54;9.82;;;5.75;;
31724;SDS011;18306;40.960;14.836;2023-05-08T07:20:21;9.00;;;5.80;;
31724;SDS011;18306;40.960;14.836;2023-05-08T07:22:49;12.98;;;5.72;;
31724;SDS011;18306;40.960;14.836;2023-05-08T07:25:16;11.23;;;6.32;;
31724;SDS011;18306;40.960;14.836;2023-05-08T07:27:43;10.02;;;5.88;;
31724;SDS011;18306;40.960;14.836;2023-05-08T07:30:10;11.02;;;5.82;;
31724;SDS011;18306;40.960;14.836;2023-05-08T07:32:37;13.55;;;5.60;;
31724;SDS011;18306;40.960;14.836;2023-05-08T07:35:05;13.23;;;6.57;;
31724;SDS011;18306;40.960;14.836;2023-05-08T07:37:34;9.52;;;5.82;;
31724;SDS011;18306;40.960;14.836;2023-05-08T07:40:01;12.27;;;5.93;;
31724;SDS011;18306;40.960;14.836;2023-05-08T07:42:28;16.23;;;6.47;;
31724;SDS011;18306;40.960;14.836;2023-05-08T07:44:55;13.35;;;6.80;;
31724;SDS011;18306;40.960;14.836;2023-05-08T07:47:22;9.50;;;5.57;;
31724;SDS011;18306;40.960;14.836;2023-05-08T07:49:49;9.88;;;5.65;;
31724;SDS011;18306;40.960;14.836;2023-05-08T07:52:16;6.07;;;4.65;;
31724;SDS011;18306;40.960;14.836;2023-05-08T07:54:44;8.45;;;5.00;;
31724;SDS011;18306;40.960;14.836;2023-05-08T07:57:11;8.00;;;5.00;;
31724;SDS011;18306;40.960;14.836;2023-05-08T07:59:38;6.78;;;4.70;;
31724;SDS011;18306;40.960;14.836;2023-05-08T08:02:05;10.43;;;5.80;;
31724;SDS011;18306;40.960;14.836;2023-05-08T08:04:33;14.02;;;7.00;;
31724;SDS011;18306;40.960;14.836;2023-05-08T08:07:01;10.02;;;6.18;;
31724;SDS011;18306;40.960;14.836;2023-05-08T08:09:28;16.00;;;6.97;;
31724;SDS011;18306;40.960;14.836;2023-05-08T08:11:55;13.63;;;7.85;;
31724;SDS011;18306;40.960;14.836;2023-05-08T08:14:26;17.58;;;7.90;;
31724;SDS011;18306;40.960;14.836;2023-05-08T08:16:53;14.82;;;6.95;;
31724;SDS011;18306;40.960;14.836;2023-05-08T08:19:20;13.88;;;6.55;;
31724;SDS011;18306;40.960;14.836;2023-05-08T08:21:47;9.75;;;6.40;;
31724;SDS011;18306;40.960;14.836;2023-05-08T08:24:14;10.55;;;6.78;;
31724;SDS011;18306;40.960;14.836;2023-05-08T08:40:11;8.10;;;5.13;;
31724;SDS011;18306;40.960;14.836;2023-05-08T08:42:38;7.32;;;4.78;;
31724;SDS011;18306;40.960;14.836;2023-05-08T08:45:06;6.82;;;3.88;;
31724;SDS011;18306;40.960;14.836;2023-05-08T08:47:34;12.48;;;6.25;;
31724;SDS011;18306;40.960;14.836;2023-05-08T08:50:03;7.60;;;3.95;;
31724;SDS011;18306;40.960;14.836;2023-05-08T08:52:32;5.53;;;3.97;;
31724;SDS011;18306;40.960;14.836;2023-05-08T08:55:24;6.60;;;3.35;;
31724;SDS011;18306;40.960;14.836;2023-05-08T08:58:02;6.90;;;3.60;;
31724;SDS011;18306;40.960;14.836;2023-05-08T09:00:37;7.43;;;4.45;;
31724;SDS011;18306;40.960;14.836;2023-05-08T09:03:04;4.70;;;3.55;;
31724;SDS011;18306;40.960;14.836;2023-05-08T09:05:35;8.68;;;5.43;;
31724;SDS011;18306;40.960;14.836;2023-05-08T09:08:14;10.68;;;5.53;;
31724;SDS011;18306;40.960;14.836;2023-05-08T09:10:47;12.23;;;5.15;;
31724;SDS011;18306;40.960;14.836;2023-05-08T09:13:23;9.57;;;6.72;;
31724;SDS011;18306;40.960;14.836;2023-05-08T09:15:50;9.25;;;5.40;;
31724;SDS011;18306;40.960;14.836;2023-05-08T09:18:17;13.00;;;6.53;;
31724;SDS011;18306;40.960;14.836;2023-05-08T09:20:46;13.02;;;6.63;;
31724;SDS011;18306;40.960;14.836;2023-05-08T09:23:14;10.25;;;6.55;;
31724;SDS011;18306;40.960;14.836;2023-05-08T09:25:43;12.55;;;6.50;;
31724;SDS011;18306;40.960;14.836;2023-05-08T09:28:17;20.85;;;7.18;;
31724;SDS011;18306;40.960;14.836;2023-05-08T09:30:56;15.65;;;7.10;;
31724;SDS011;18306;40.960;14.836;2023-05-08T09:33:25;10.60;;;6.38;;
31724;SDS011;18306;40.960;14.836;2023-05-08T09:35:53;21.10;;;7.10;;
31724;SDS011;18306;40.960;14.836;2023-05-08T09:38:31;12.48;;;7.07;;
31724;SDS011;18306;40.960;14.836;2023-05-08T09:41:05;15.52;;;7.07;;
31724;SDS011;18306;40.960;14.836;2023-05-08T09:43:36;9.02;;;6.28;;
31724;SDS011;18306;40.960;14.836;2023-05-08T09:46:20;12.75;;;6.53;;
31724;SDS011;18306;40.960;14.836;2023-05-08T09:48:49;14.60;;;7.07;;
31724;SDS011;18306;40.960;14.836;2023-05-08T09:51:19;14.25;;;6.60;;
31724;SDS011;18306;40.960;14.836;2023-05-08T09:53:48;16.42;;;8.63;;
31724;SDS011;18306;40.960;14.836;2023-05-08T09:56:34;13.10;;;7.25;;
31724;SDS011;18306;40.960;14.836;2023-05-08T09:59:25;14.68;;;8.73;;
31724;SDS011;18306;40.960;14.836;2023-05-08T10:01:54;17.38;;;8.65;;
31724;SDS011;18306;40.960;14.836;2023-05-08T10:04:31;14.45;;;8.02;;
31724;SDS011;18306;40.960;14.836;2023-05-08T10:06:59;15.50;;;9.25;;
31724;SDS011;18306;40.960;14.836;2023-05-08T10:09:27;13.27;;;7.13;;
31724;SDS011;18306;40.960;14.836;2023-05-08T10:11:54;21.25;;;9.02;;
31724;SDS011;18306;40.960;14.836;2023-05-08T10:14:22;20.85;;;7.82;;
31724;SDS011;18306;40.960;14.836;2023-05-08T10:16:50;17.25;;;8.20;;
31724;SDS011;18306;40.960;14.836;2023-05-08T10:19:19;19.52;;;8.30;;
31724;SDS011;18306;40.960;14.836;2023-05-08T10:21:48;21.73;;;8.20;;
31724;SDS011;18306;40.960;14.836;2023-05-08T10:24:19;18.27;;;8.23;;
31724;SDS011;18306;40.960;14.836;2023-05-08T10:27:04;14.30;;;9.20;;
31724;SDS011;18306;40.960;14.836;2023-05-08T10:29:52;11.70;;;7.68;;
31724;SDS011;18306;40.960;14.836;2023-05-08T10:32:22;14.27;;;7.30;;
31724;SDS011;18306;40.960;14.836;2023-05-08T10:34:58;15.25;;;7.38;;
31724;SDS011;18306;40.960;14.836;2023-05-08T10:37:28;21.08;;;8.52;;
31724;SDS011;18306;40.960;14.836;2023-05-08T10:39:59;10.95;;;7.40;;
31724;SDS011;18306;40.960;14.836;2023-05-08T10:42:27;10.80;;;7.90;;
31724;SDS011;18306;40.960;14.836;2023-05-08T10:44:54;13.98;;;8.05;;
31724;SDS011;18306;40.960;14.836;2023-05-08T10:47:44;16.02;;;8.02;;
31724;SDS011;18306;40.960;14.836;2023-05-08T10:56:29;11.32;;;7.97;;
31724;SDS011;18306;40.960;14.836;2023-05-08T10:58:56;15.10;;;7.30;;
31724;SDS011;18306;40.960;14.836;2023-05-08T11:01:24;15.48;;;7.43;;
31724;SDS011;18306;40.960;14.836;2023-05-08T11:03:52;12.75;;;8.00;;
31724;SDS011;18306;40.960;14.836;2023-05-08T11:06:53;10.00;;;7.13;;
31724;SDS011;18306;40.960;14.836;2023-05-08T11:09:20;18.05;;;7.88;;
31724;SDS011;18306;40.960;14.836;2023-05-08T11:12:35;10.40;;;7.47;;
31724;SDS011;18306;40.960;14.836;2023-05-08T11:15:02;15.13;;;8.30;;
31724;SDS011;18306;40.960;14.836;2023-05-08T11:17:32;14.80;;;7.85;;
31724;SDS011;18306;40.960;14.836;2023-05-08T11:20:03;13.18;;;8.15;;
31724;SDS011;18306;40.960;14.836;2023-05-08T11:22:32;22.85;;;8.30;;
31724;SDS011;18306;40.960;14.836;2023-05-08T11:25:05;14.45;;;8.07;;
31724;SDS011;18306;40.960;14.836;2023-05-08T11:27:35;13.05;;;8.02;;
31724;SDS011;18306;40.960;14.836;2023-05-08T11:30:32;17.50;;;8.35;;
31724;SDS011;18306;40.960;14.836;2023-05-08T11:38:25;11.93;;;7.05;;
31724;SDS011;18306;40.960;14.836;2023-05-08T11:40:58;18.88;;;7.20;;
31724;SDS011;18306;40.960;14.836;2023-05-08T11:45:59;12.77;;;7.55;;
31724;SDS011;18306;40.960;14.836;2023-05-08T11:48:31;11.55;;;6.93;;
31724;SDS011;18306;40.960;14.836;2023-05-08T11:50:59;11.25;;;6.50;;
31724;SDS011;18306;40.960;14.836;2023-05-08T11:53:28;12.50;;;7.20;;
31724;SDS011;18306;40.960;14.836;2023-05-08T11:55:56;13.43;;;6.95;;
31724;SDS011;18306;40.960;14.836;2023-05-08T11:58:24;11.88;;;7.13;;
31724;SDS011;18306;40.960;14.836;2023-05-08T12:01:01;16.13;;;7.28;;
31724;SDS011;18306;40.960;14.836;2023-05-08T12:03:31;10.82;;;5.80;;
31724;SDS011;18306;40.960;14.836;2023-05-08T12:05:58;12.05;;;6.45;;
31724;SDS011;18306;40.960;14.836;2023-05-08T12:08:25;12.52;;;6.60;;
31724;SDS011;18306;40.960;14.836;2023-05-08T12:10:54;9.00;;;5.78;;
31724;SDS011;18306;40.960;14.836;2023-05-08T12:13:28;13.00;;;5.80;;
31724;SDS011;18306;40.960;14.836;2023-05-08T12:15:56;9.95;;;6.63;;
31724;SDS011;18306;40.960;14.836;2023-05-08T12:18:26;8.48;;;5.80;;
31724;SDS011;18306;40.960;14.836;2023-05-08T12:20:58;8.13;;;5.35;;
31724;SDS011;18306;40.960;14.836;2023-05-08T12:23:28;9.43;;;5.10;;
31724;SDS011;18306;40.960;14.836;2023-05-08T12:25:59;11.50;;;5.40;;
31724;SDS011;18306;40.960;14.836;2023-05-08T12:28:27;6.55;;;5.00;;
31724;SDS011;18306;40.960;14.836;2023-05-08T12:30:54;8.85;;;5.00;;
31724;SDS011;18306;40.960;14.836;2023-05-08T12:33:22;15.93;;;7.28;;
31724;SDS011;18306;40.960;14.836;2023-05-08T12:35:50;11.82;;;7.60;;
31724;SDS011;18306;40.960;14.836;2023-05-08T12:38:17;14.55;;;9.00;;
31724;SDS011;18306;40.960;14.836;2023-05-08T12:40:45;13.75;;;9.07;;
31724;SDS011;18306;40.960;14.836;2023-05-08T12:43:15;16.02;;;8.80;;
31724;SDS011;18306;40.960;14.836;2023-05-08T12:45:42;14.15;;;9.43;;
31724;SDS011;18306;40.960;14.836;2023-05-08T12:48:10;14.50;;;9.18;;
31724;SDS011;18306;40.960;14.836;2023-05-08T12:50:38;17.05;;;9.70;;
31724;SDS011;18306;40.960;14.836;2023-05-08T12:53:16;15.00;;;9.77;;
31724;SDS011;18306;40.960;14.836;2023-05-08T12:55:54;21.90;;;9.55;;
31724;SDS011;18306;40.960;14.836;2023-05-08T12:58:26;18.48;;;9.30;;
31724;SDS011;18306;40.960;14.836;2023-05-08T13:01:02;18.90;;;8.98;;
31724;SDS011;18306;40.960;14.836;2023-05-08T13:03:35;15.75;;;8.35;;
31724;SDS011;18306;40.960;14.836;2023-05-08T13:06:03;20.33;;;8.43;;
31724;SDS011;18306;40.960;14.836;2023-05-08T13:10:59;15.60;;;7.32;;
31724;SDS011;18306;40.960;14.836;2023-05-08T13:13:28;14.75;;;7.65;;
31724;SDS011;18306;40.960;14.836;2023-05-08T13:15:56;11.65;;;7.18;;
31724;SDS011;18306;40.960;14.836;2023-05-08T13:18:24;13.68;;;8.15;;
31724;SDS011;18306;40.960;14.836;2023-05-08T13:24:15;17.77;;;8.50;;
31724;SDS011;18306;40.960;14.836;2023-05-08T13:26:42;10.63;;;7.70;;
31724;SDS011;18306;40.960;14.836;2023-05-08T13:29:17;16.70;;;7.70;;
31724;SDS011;18306;40.960;14.836;2023-05-08T13:31:47;16.83;;;7.45;;
31724;SDS011;18306;40.960;14.836;2023-05-08T13:34:14;13.43;;;8.20;;
31724;SDS011;18306;40.960;14.836;2023-05-08T13:36:40;13.27;;;8.52;;
31724;SDS011;18306;40.960;14.836;2023-05-08T13:39:08;13.90;;;7.82;;
31724;SDS011;18306;40.960;14.836;2023-05-08T13:41:34;11.00;;;7.22;;
31724;SDS011;18306;40.960;14.836;2023-05-08T13:44:01;12.40;;;7.55;;
31724;SDS011;18306;40.960;14.836;2023-05-08T13:46:28;14.93;;;8.13;;
31724;SDS011;18306;40.960;14.836;2023-05-08T13:48:55;11.13;;;7.35;;
31724;SDS011;18306;40.960;14.836;2023-05-08T13:51:22;12.48;;;6.93;;
31724;SDS011;18306;40.960;14.836;2023-05-08T13:53:49;17.90;;;7.07;;
31724;SDS011;18306;40.960;14.836;2023-05-08T13:56:16;13.32;;;6.68;;
31724;SDS011;18306;40.960;14.836;2023-05-08T13:58:44;10.55;;;5.80;;
31724;SDS011;18306;40.960;14.836;2023-05-08T14:01:11;12.63;;;6.85;;
31724;SDS011;18306;40.960;14.836;2023-05-08T14:03:42;12.73;;;7.03;;
31724;SDS011;18306;40.960;14.836;2023-05-08T14:06:13;15.98;;;6.75;;
31724;SDS011;18306;40.960;14.836;2023-05-08T14:08:51;11.52;;;6.53;;
31724;SDS011;18306;40.960;14.836;2023-05-08T14:11:23;11.02;;;6.95;;
31724;SDS011;18306;40.960;14.836;2023-05-08T14:13:50;12.55;;;7.03;;
31724;SDS011;18306;40.960;14.836;2023-05-08T14:16:20;15.00;;;7.63;;
31724;SDS011;18306;40.960;14.836;2023-05-08T14:18:50;13.90;;;6.50;;
31724;SDS011;18306;40.960;14.836;2023-05-08T14:21:17;11.52;;;6.90;;
31724;SDS011;18306;40.960;14.836;2023-05-08T14:23:46;18.90;;;9.15;;
31724;SDS011;18306;40.960;14.836;2023-05-08T14:26:14;10.75;;;7.82;;
31724;SDS011;18306;40.960;14.836;2023-05-08T14:28:44;23.95;;;10.02;;
31724;SDS011;18306;40.960;14.836;2023-05-08T14:31:16;10.35;;;7.63;;
31724;SDS011;18306;40.960;14.836;2023-05-08T14:33:46;11.95;;;7.90;;
31724;SDS011;18306;40.960;14.836;2023-05-08T14:36:13;16.90;;;8.82;;
31724;SDS011;18306;40.960;14.836;2023-05-08T14:38:41;13.07;;;8.30;;
31724;SDS011;18306;40.960;14.836;2023-05-08T14:41:11;16.42;;;8.43;;
31724;SDS011;18306;40.960;14.836;2023-05-08T14:43:40;12.73;;;8.32;;
31724;SDS011;18306;40.960;14.836;2023-05-08T14:46:08;16.75;;;8.98;;
31724;SDS011;18306;40.960;14.836;2023-05-08T14:48:40;15.77;;;8.07;;
31724;SDS011;18306;40.960;14.836;2023-05-08T14:51:09;21.35;;;9.40;;
31724;SDS011;18306;40.960;14.836;2023-05-08T14:53:39;13.05;;;8.05;;
31724;SDS011;18306;40.960;14.836;2023-05-08T14:56:06;13.38;;;8.35;;
31724;SDS011;18306;40.960;14.836;2023-05-08T14:58:35;15.35;;;8.38;;
31724;SDS011;18306;40.960;14.836;2023-05-08T15:01:06;13.40;;;8.43;;
31724;SDS011;18306;40.960;14.836;2023-05-08T15:03:33;20.70;;;10.57;;
31724;SDS011;18306;40.960;14.836;2023-05-08T15:06:04;9.95;;;7.50;;
31724;SDS011;18306;40.960;14.836;2023-05-08T15:08:32;13.40;;;8.05;;
31724;SDS011;18306;40.960;14.836;2023-05-08T15:11:01;15.45;;;9.10;;
31724;SDS011;18306;40.960;14.836;2023-05-08T15:13:33;13.70;;;8.15;;
31724;SDS011;18306;40.960;14.836;2023-05-08T15:16:03;14.18;;;8.30;;
31724;SDS011;18306;40.960;14.836;2023-05-08T15:18:31;17.52;;;9.05;;
31724;SDS011;18306;40.960;14.836;2023-05-08T15:21:04;10.88;;;8.15;;
31724;SDS011;18306;40.960;14.836;2023-05-08T15:23:38;15.70;;;8.32;;
31724;SDS011;18306;40.960;14.836;2023-05-08T15:26:10;12.52;;;8.35;;
31724;SDS011;18306;40.960;14.836;2023-05-08T15:28:39;13.35;;;8.45;;
31724;SDS011;18306;40.960;14.836;2023-05-08T15:31:06;15.38;;;7.97;;
31724;SDS011;18306;40.960;14.836;2023-05-08T15:33:34;14.50;;;8.80;;
31724;SDS011;18306;40.960;14.836;2023-05-08T15:36:04;12.73;;;7.15;;
31724;SDS011;18306;40.960;14.836;2023-05-08T15:38:36;12.52;;;7.72;;
31724;SDS011;18306;40.960;14.836;2023-05-08T15:41:06;13.93;;;7.97;;
31724;SDS011;18306;40.960;14.836;2023-05-08T15:43:37;13.38;;;7.95;;
31724;SDS011;18306;40.960;14.836;2023-05-08T15:46:05;10.40;;;6.78;;